sensor_id;sensor_type;location;lat;lon;timestamp;pressure;altitude;pressure_sealevel;temperature;humidity
71966;BME280;59836;52.132;5.442;2024-02-16T00:01:48;100980.47;;;11.26;100.00
71966;BME280;59836;52.132;5.442;2024-02-16T00:04:14;100976.69;;;11.27;100.00
71966;BME280;59836;52.132;5.442;2024-02-16T00:06:41;100985.38;;;11.23;100.00
71966;BME280;59836;52.132;5.442;2024-02-16T00:09:07;100981.03;;;11.22;100.00
71966;BME280;59836;52.132;5.442;2024-02-16T00:11:37;100979.38;;;11.21;100.00
71966;BME280;59836;52.132;5.442;2024-02-16T00:14:04;100975.31;;;11.19;100.00
71966;BME280;59836;52.132;5.442;2024-02-16T00:16:30;100979.38;;;11.21;100.00
71966;BME280;59836;52.132;5.442;2024-02-16T00:18:57;100972.31;;;11.20;100.00
71966;BME280;59836;52.132;5.442;2024-02-16T00:21:24;100974.50;;;11.18;100.00
71966;BME280;59836;52.132;5.442;2024-02-16T00:23:51;100973.69;;;11.18;100.00
71966;BME280;59836;52.132;5.442;2024-02-16T00:26:17;100977.50;;;11.17;100.00
71966;BME280;59836;52.132;5.442;2024-02-16T00:28:44;100969.59;;;11.15;100.00
71966;BME280;59836;52.132;5.442;2024-02-16T00:31:10;100973.41;;;11.14;100.00
71966;BME280;59836;52.132;5.442;2024-02-16T00:33:37;100970.19;;;11.12;100.00
71966;BME280;59836;52.132;5.442;2024-02-16T00:36:04;100967.47;;;11.12;100.00
71966;BME280;59836;52.132;5.442;2024-02-16T00:38:31;100963.38;;;11.10;100.00
71966;BME280;59836;52.132;5.442;2024-02-16T00:40:57;100969.09;;;11.08;100.00
71966;BME280;59836;52.132;5.442;2024-02-16T00:43:24;100966.09;;;11.10;100.00
71966;BME280;59836;52.132;5.442;2024-02-16T00:45:50;100964.47;;;11.08;100.00
71966;BME280;59836;52.132;5.442;2024-02-16T00:48:17;100971.53;;;11.10;100.00
71966;BME280;59836;52.132;5.442;2024-02-16T00:50:44;100958.22;;;11.08;100.00
71966;BME280;59836;52.132;5.442;2024-02-16T00:53:11;100955.78;;;11.06;100.00
71966;BME280;59836;52.132;5.442;2024-02-16T00:55:37;100962.03;;;11.07;100.00
71966;BME280;59836;52.132;5.442;2024-02-16T00:58:04;100959.56;;;11.05;100.00
71966;BME280;59836;52.132;5.442;2024-02-16T01:00:31;100956.06;;;11.05;100.00
71966;BME280;59836;52.132;5.442;2024-02-16T01:02:58;100961.19;;;11.06;100.00
71966;BME280;59836;52.132;5.442;2024-02-16T01:05:25;100962.56;;;11.04;100.00
71966;BME280;59836;52.132;5.442;2024-02-16T01:07:51;100957.16;;;11.04;100.00
71966;BME280;59836;52.132;5.442;2024-02-16T01:10:18;100954.69;;;11.02;100.00
71966;BME280;59836;52.132;5.442;2024-02-16T01:12:45;100955.50;;;11.03;100.00
71966;BME280;59836;52.132;5.442;2024-02-16T01:15:11;100949.25;;;11.02;100.00
71966;BME280;59836;52.132;5.442;2024-02-16T01:17:38;100945.19;;;11.00;100.00
71966;BME280;59836;52.132;5.442;2024-02-16T01:20:06;100940.31;;;10.97;100.00
71966;BME280;59836;52.132;5.442;2024-02-16T01:22:38;100940.31;;;10.97;100.00
71966;BME280;59836;52.132;5.442;2024-02-16T01:25:06;100935.97;;;10.96;100.00
71966;BME280;59836;52.132;5.442;2024-02-16T01:27:34;100933.25;;;10.96;100.00
71966;BME280;59836;52.132;5.442;2024-02-16T01:30:02;100929.44;;;10.97;100.00
71966;BME280;59836;52.132;5.442;2024-02-16T01:32:29;100944.09;;;10.96;100.00
71966;BME280;59836;52.132;5.442;2024-02-16T01:34:56;100937.84;;;10.95;100.00
71966;BME280;59836;52.132;5.442;2024-02-16T01:37:23;100933.78;;;10.92;100.00
71966;BME280;59836;52.132;5.442;2024-02-16T01:39:50;100931.88;;;10.93;100.00
71966;BME280;59836;52.132;5.442;2024-02-16T01:42:16;100924.56;;;10.93;100.00
71966;BME280;59836;52.132;5.442;2024-02-16T01:44:43;100929.44;;;10.91;100.00
71966;BME280;59836;52.132;5.442;2024-02-16T01:47:10;100924.28;;;10.90;100.00
71966;BME280;59836;52.132;5.442;2024-02-16T01:49:36;100927.28;;;10.88;100.00
71966;BME280;59836;52.132;5.442;2024-02-16T01:52:04;100925.63;;;10.87;100.00
71966;BME280;59836;52.132;5.442;2024-02-16T01:54:31;100929.44;;;10.86;100.00
71966;BME280;59836;52.132;5.442;2024-02-16T01:56:58;100937.03;;;10.84;100.00
71966;BME280;59836;52.132;5.442;2024-02-16T01:59:25;100935.41;;;10.83;100.00
71966;BME280;59836;52.132;5.442;2024-02-16T02:01:52;100922.91;;;10.82;100.00
71966;BME280;59836;52.132;5.442;2024-02-16T02:04:18;100921.28;;;10.81;100.00
71966;BME280;59836;52.132;5.442;2024-02-16T02:06:46;100912.59;;;10.79;100.00
71966;BME280;59836;52.132;5.442;2024-02-16T02:09:13;100917.75;;;10.81;100.00
71966;BME280;59836;52.132;5.442;2024-02-16T02:11:39;100908.81;;;10.80;100.00
71966;BME280;59836;52.132;5.442;2024-02-16T02:14:06;100912.59;;;10.79;100.00
71966;BME280;59836;52.132;5.442;2024-02-16T02:16:33;100908.81;;;10.80;100.00
71966;BME280;59836;52.132;5.442;2024-02-16T02:19:13;100909.59;;;10.81;100.00
71966;BME280;59836;52.132;5.442;2024-02-16T02:21:40;100910.44;;;10.81;100.00
71966;BME280;59836;52.132;5.442;2024-02-16T02:24:06;100906.63;;;10.82;100.00
71966;BME280;59836;52.132;5.442;2024-02-16T02:26:35;100912.06;;;10.82;100.00
71966;BME280;59836;52.132;5.442;2024-02-16T02:29:02;100922.91;;;10.82;100.00
71966;BME280;59836;52.132;5.442;2024-02-16T02:31:28;100920.75;;;10.84;100.00
71966;BME280;59836;52.132;5.442;2024-02-16T02:33:55;100915.31;;;10.84;100.00
71966;BME280;59836;52.132;5.442;2024-02-16T02:36:22;100903.38;;;10.85;100.00
71966;BME280;59836;52.132;5.442;2024-02-16T02:38:49;100913.16;;;10.86;100.00
71966;BME280;59836;52.132;5.442;2024-02-16T02:41:16;100901.47;;;10.86;100.00
71966;BME280;59836;52.132;5.442;2024-02-16T02:43:43;100899.59;;;10.86;100.00
71966;BME280;59836;52.132;5.442;2024-02-16T02:46:17;100890.63;;;10.86;100.00
71966;BME280;59836;52.132;5.442;2024-02-16T02:48:45;100879.50;;;10.87;100.00
71966;BME280;59836;52.132;5.442;2024-02-16T02:51:17;100883.03;;;10.88;100.00
71966;BME280;59836;52.132;5.442;2024-02-16T02:53:44;100883.03;;;10.88;100.00
71966;BME280;59836;52.132;5.442;2024-02-16T02:56:11;100883.84;;;10.88;100.00
71966;BME280;59836;52.132;5.442;2024-02-16T02:58:40;100883.03;;;10.88;100.00
71966;BME280;59836;52.132;5.442;2024-02-16T03:01:07;100871.38;;;10.87;100.00
71966;BME280;59836;52.132;5.442;2024-02-16T03:03:35;100876.81;;;10.87;100.00
71966;BME280;59836;52.132;5.442;2024-02-16T03:06:02;100876.81;;;10.87;100.00
71966;BME280;59836;52.132;5.442;2024-02-16T03:08:30;100870.53;;;10.87;100.00
71966;BME280;59836;52.132;5.442;2024-02-16T03:10:56;100874.34;;;10.86;100.00
71966;BME280;59836;52.132;5.442;2024-02-16T03:13:27;100868.91;;;10.86;100.00
71966;BME280;59836;52.132;5.442;2024-02-16T03:15:53;100869.75;;;10.86;100.00
71966;BME280;59836;52.132;5.442;2024-02-16T03:18:20;100870.53;;;10.87;100.00
71966;BME280;59836;52.132;5.442;2024-02-16T03:20:47;100872.47;;;10.86;100.00
71966;BME280;59836;52.132;5.442;2024-02-16T03:23:16;100871.63;;;10.86;100.00
71966;BME280;59836;52.132;5.442;2024-02-16T03:25:42;100877.34;;;10.84;100.00
71966;BME280;59836;52.132;5.442;2024-02-16T03:28:12;100871.91;;;10.84;100.00
71966;BME280;59836;52.132;5.442;2024-02-16T03:30:40;100868.66;;;10.82;100.00
71966;BME280;59836;52.132;5.442;2024-02-16T03:33:07;100869.19;;;10.79;100.00
71966;BME280;59836;52.132;5.442;2024-02-16T03:35:35;100867.56;;;10.78;100.00
71966;BME280;59836;52.132;5.442;2024-02-16T03:38:05;100866.75;;;10.77;100.00
71966;BME280;59836;52.132;5.442;2024-02-16T03:40:32;100876.78;;;10.77;100.00
71966;BME280;59836;52.132;5.442;2024-02-16T03:42:58;100875.16;;;10.76;100.00
71966;BME280;59836;52.132;5.442;2024-02-16T03:45:25;100868.09;;;10.75;100.00
71966;BME280;59836;52.132;5.442;2024-02-16T03:47:55;100871.91;;;10.74;100.00
71966;BME280;59836;52.132;5.442;2024-02-16T03:50:21;100874.06;;;10.72;100.00
71966;BME280;59836;52.132;5.442;2024-02-16T03:52:48;100872.44;;;10.71;100.00
71966;BME280;59836;52.132;5.442;2024-02-16T03:55:15;100867.03;;;10.71;100.00
71966;BME280;59836;52.132;5.442;2024-02-16T03:57:41;100870.81;;;10.70;100.00
71966;BME280;59836;52.132;5.442;2024-02-16T04:00:08;100856.72;;;10.68;100.00
71966;BME280;59836;52.132;5.442;2024-02-16T04:02:35;100869.19;;;10.69;100.00
71966;BME280;59836;52.132;5.442;2024-02-16T04:05:03;100865.66;;;10.68;100.00
71966;BME280;59836;52.132;5.442;2024-02-16T04:07:30;100870.53;;;10.66;100.00
71966;BME280;59836;52.132;5.442;2024-02-16T04:09:56;100874.06;;;10.67;100.00
71966;BME280;59836;52.132;5.442;2024-02-16T04:12:23;100879.50;;;10.67;100.00
71966;BME280;59836;52.132;5.442;2024-02-16T04:14:49;100872.16;;;10.67;100.00
71966;BME280;59836;52.132;5.442;2024-02-16T04:17:16;100882.19;;;10.67;100.00
71966;BME280;59836;52.132;5.442;2024-02-16T04:19:43;100879.50;;;10.67;100.00
71966;BME280;59836;52.132;5.442;2024-02-16T04:22:10;100878.94;;;10.65;100.00
71966;BME280;59836;52.132;5.442;2024-02-16T04:24:37;100874.06;;;10.67;100.00
71966;BME280;59836;52.132;5.442;2024-02-16T04:27:04;100869.72;;;10.66;100.00
71966;BME280;59836;52.132;5.442;2024-02-16T04:29:34;100863.47;;;10.65;100.00
71966;BME280;59836;52.132;5.442;2024-02-16T04:32:00;100877.31;;;10.63;100.00
71966;BME280;59836;52.132;5.442;2024-02-16T04:34:27;100863.22;;;10.61;100.00
71966;BME280;59836;52.132;5.442;2024-02-16T04:36:55;100868.63;;;10.61;100.00
71966;BME280;59836;52.132;5.442;2024-02-16T04:39:21;100863.22;;;10.61;100.00
71966;BME280;59836;52.132;5.442;2024-02-16T04:41:49;100861.56;;;10.60;100.00
71966;BME280;59836;52.132;5.442;2024-02-16T04:44:18;100874.06;;;10.61;100.00
71966;BME280;59836;52.132;5.442;2024-02-16T04:46:44;100870.81;;;10.59;100.00
71966;BME280;59836;52.132;5.442;2024-02-16T04:49:11;100874.06;;;10.61;100.00
71966;BME280;59836;52.132;5.442;2024-02-16T04:51:38;100875.69;;;10.62;100.00
71966;BME280;59836;52.132;5.442;2024-02-16T04:54:06;100877.31;;;10.63;100.00
71966;BME280;59836;52.132;5.442;2024-02-16T04:56:32;100871.06;;;10.63;100.00
71966;BME280;59836;52.132;5.442;2024-02-16T04:58:59;100872.97;;;10.62;100.00
71966;BME280;59836;52.132;5.442;2024-02-16T05:01:25;100871.06;;;10.63;100.00
71966;BME280;59836;52.132;5.442;2024-02-16T05:03:52;100871.88;;;10.63;100.00
71966;BME280;59836;52.132;5.442;2024-02-16T05:06:19;100871.88;;;10.63;100.00
71966;BME280;59836;52.132;5.442;2024-02-16T05:08:45;100871.88;;;10.63;100.00
71966;BME280;59836;52.132;5.442;2024-02-16T05:11:12;100871.88;;;10.63;100.00
71966;BME280;59836;52.132;5.442;2024-02-16T05:13:39;100871.34;;;10.61;100.00
71966;BME280;59836;52.132;5.442;2024-02-16T05:16:09;100877.84;;;10.60;100.00
71966;BME280;59836;52.132;5.442;2024-02-16T05:18:36;100874.06;;;10.61;100.00
71966;BME280;59836;52.132;5.442;2024-02-16T05:21:03;100867.00;;;10.60;100.00
71966;BME280;59836;52.132;5.442;2024-02-16T05:23:29;100867.00;;;10.60;100.00
71966;BME280;59836;52.132;5.442;2024-02-16T05:25:57;100868.63;;;10.61;100.00
71966;BME280;59836;52.132;5.442;2024-02-16T05:28:24;100863.22;;;10.61;100.00
71966;BME280;59836;52.132;5.442;2024-02-16T05:30:50;100857.78;;;10.61;100.00
71966;BME280;59836;52.132;5.442;2024-02-16T05:33:17;100856.69;;;10.62;100.00
71966;BME280;59836;52.132;5.442;2024-02-16T05:35:44;100857.78;;;10.61;100.00
71966;BME280;59836;52.132;5.442;2024-02-16T05:38:11;100855.34;;;10.60;100.00
71966;BME280;59836;52.132;5.442;2024-02-16T05:40:58;100849.09;;;10.59;100.00
71966;BME280;59836;52.132;5.442;2024-02-16T05:43:24;100857.25;;;10.59;100.00
71966;BME280;59836;52.132;5.442;2024-02-16T05:45:51;100858.88;;;10.60;100.00
71966;BME280;59836;52.132;5.442;2024-02-16T05:48:18;100858.88;;;10.60;100.00
71966;BME280;59836;52.132;5.442;2024-02-16T05:50:46;100858.88;;;10.60;100.00
71966;BME280;59836;52.132;5.442;2024-02-16T05:53:13;100861.56;;;10.60;100.00
71966;BME280;59836;52.132;5.442;2024-02-16T05:55:39;100859.94;;;10.59;100.00
71966;BME280;59836;52.132;5.442;2024-02-16T05:58:06;100865.38;;;10.59;100.00
71966;BME280;59836;52.132;5.442;2024-02-16T06:00:33;100863.75;;;10.58;100.00
71966;BME280;59836;52.132;5.442;2024-02-16T06:03:01;100868.91;;;10.60;100.00
71966;BME280;59836;52.132;5.442;2024-02-16T06:05:29;100862.66;;;10.59;100.00
71966;BME280;59836;52.132;5.442;2024-02-16T06:07:55;100868.38;;;10.58;100.00
71966;BME280;59836;52.132;5.442;2024-02-16T06:10:23;100858.31;;;10.58;100.00
71966;BME280;59836;52.132;5.442;2024-02-16T06:12:50;100862.94;;;10.58;100.00
71966;BME280;59836;52.132;5.442;2024-02-16T06:15:17;100865.66;;;10.58;100.00
71966;BME280;59836;52.132;5.442;2024-02-16T06:17:43;100857.78;;;10.56;100.00
71966;BME280;59836;52.132;5.442;2024-02-16T06:20:10;100865.91;;;10.56;100.00
71966;BME280;59836;52.132;5.442;2024-02-16T06:22:38;100877.59;;;10.57;100.00
71966;BME280;59836;52.132;5.442;2024-02-16T06:25:04;100886.81;;;10.56;100.00
71966;BME280;59836;52.132;5.442;2024-02-16T06:27:32;100889.22;;;10.57;100.00
71966;BME280;59836;52.132;5.442;2024-02-16T06:29:59;100896.81;;;10.55;100.00
71966;BME280;59836;52.132;5.442;2024-02-16T06:32:26;100896.81;;;10.55;100.00
71966;BME280;59836;52.132;5.442;2024-02-16T06:34:56;100905.50;;;10.57;100.00
71966;BME280;59836;52.132;5.442;2024-02-16T06:37:23;100910.13;;;10.57;100.00
71966;BME280;59836;52.132;5.442;2024-02-16T06:39:49;100904.72;;;10.57;100.00
71966;BME280;59836;52.132;5.442;2024-02-16T06:42:16;100906.34;;;10.58;100.00
71966;BME280;59836;52.132;5.442;2024-02-16T06:44:42;100906.34;;;10.58;100.00
71966;BME280;59836;52.132;5.442;2024-02-16T06:47:09;100913.41;;;10.59;100.00
71966;BME280;59836;52.132;5.442;2024-02-16T06:49:35;100914.19;;;10.59;100.00
71966;BME280;59836;52.132;5.442;2024-02-16T06:52:03;100922.88;;;10.61;100.00
71966;BME280;59836;52.132;5.442;2024-02-16T06:54:30;100932.09;;;10.60;100.00
71966;BME280;59836;52.132;5.442;2024-02-16T06:56:57;100928.31;;;10.61;100.00
71966;BME280;59836;52.132;5.442;2024-02-16T06:59:23;100927.47;;;10.61;100.00
71966;BME280;59836;52.132;5.442;2024-02-16T07:01:50;100929.38;;;10.60;100.00
71966;BME280;59836;52.132;5.442;2024-02-16T07:04:16;100921.25;;;10.60;100.00
71966;BME280;59836;52.132;5.442;2024-02-16T07:06:44;100921.25;;;10.60;100.00
71966;BME280;59836;52.132;5.442;2024-02-16T07:09:10;100933.72;;;10.61;100.00
71966;BME280;59836;52.132;5.442;2024-02-16T07:11:41;100936.44;;;10.61;100.00
71966;BME280;59836;52.132;5.442;2024-02-16T07:14:08;100935.34;;;10.62;100.00
71966;BME280;59836;52.132;5.442;2024-02-16T07:16:34;100938.31;;;10.61;100.00
71966;BME280;59836;52.132;5.442;2024-02-16T07:19:01;100940.78;;;10.62;100.00
71966;BME280;59836;52.132;5.442;2024-02-16T07:21:28;100950.00;;;10.61;100.00
71966;BME280;59836;52.132;5.442;2024-02-16T07:23:54;100954.34;;;10.62;100.00
71966;BME280;59836;52.132;5.442;2024-02-16T07:26:21;100959.75;;;10.62;100.00
71966;BME280;59836;52.132;5.442;2024-02-16T07:28:48;100955.97;;;10.63;100.00
71966;BME280;59836;52.132;5.442;2024-02-16T07:31:14;100950.53;;;10.63;100.00
71966;BME280;59836;52.132;5.442;2024-02-16T07:33:42;100959.47;;;10.64;100.00
71966;BME280;59836;52.132;5.442;2024-02-16T07:36:09;100955.97;;;10.63;100.00
71966;BME280;59836;52.132;5.442;2024-02-16T07:38:36;100955.69;;;10.65;100.00
71966;BME280;59836;52.132;5.442;2024-02-16T07:41:02;100961.13;;;10.65;100.00
71966;BME280;59836;52.132;5.442;2024-02-16T07:43:34;100963.03;;;10.65;100.00
71966;BME280;59836;52.132;5.442;2024-02-16T07:46:01;100964.66;;;10.66;100.00
71966;BME280;59836;52.132;5.442;2024-02-16T07:48:29;100963.81;;;10.65;100.00
71966;BME280;59836;52.132;5.442;2024-02-16T07:50:56;100971.72;;;10.67;100.00
71966;BME280;59836;52.132;5.442;2024-02-16T07:53:25;100977.13;;;10.67;100.00
71966;BME280;59836;52.132;5.442;2024-02-16T07:55:52;100980.66;;;10.67;100.00
71966;BME280;59836;52.132;5.442;2024-02-16T07:58:18;100980.41;;;10.69;100.00
71966;BME280;59836;52.132;5.442;2024-02-16T08:00:45;100988.53;;;10.69;100.00
71966;BME280;59836;52.132;5.442;2024-02-16T08:03:12;100995.59;;;10.70;100.00
71966;BME280;59836;52.132;5.442;2024-02-16T08:05:39;101001.56;;;10.72;100.00
71966;BME280;59836;52.132;5.442;2024-02-16T08:08:05;101007.53;;;10.74;100.00
71966;BME280;59836;52.132;5.442;2024-02-16T08:10:32;101009.72;;;10.77;100.00
71966;BME280;59836;52.132;5.442;2024-02-16T08:12:58;101011.34;;;10.78;100.00
71966;BME280;59836;52.132;5.442;2024-02-16T08:15:25;101002.69;;;10.81;100.00
71966;BME280;59836;52.132;5.442;2024-02-16T08:17:52;101007.81;;;10.83;100.00
71966;BME280;59836;52.132;5.442;2024-02-16T08:20:20;101016.25;;;10.86;100.00
71966;BME280;59836;52.132;5.442;2024-02-16T08:22:47;101014.09;;;10.88;100.00
71966;BME280;59836;52.132;5.442;2024-02-16T08:25:13;101009.75;;;10.92;100.00
71966;BME280;59836;52.132;5.442;2024-02-16T08:27:40;101021.97;;;10.95;100.00
71966;BME280;59836;52.132;5.442;2024-02-16T08:30:07;101017.38;;;11.01;100.00
71966;BME280;59836;52.132;5.442;2024-02-16T08:32:36;101020.13;;;11.06;100.00
71966;BME280;59836;52.132;5.442;2024-02-16T08:35:02;101028.25;;;11.11;100.00
71966;BME280;59836;52.132;5.442;2024-02-16T08:37:29;101018.47;;;11.15;100.00
71966;BME280;59836;52.132;5.442;2024-02-16T08:39:56;101020.41;;;11.20;100.00
71966;BME280;59836;52.132;5.442;2024-02-16T08:42:22;101025.84;;;11.25;100.00
71966;BME280;59836;52.132;5.442;2024-02-16T08:44:50;101035.88;;;11.30;100.00
71966;BME280;59836;52.132;5.442;2024-02-16T08:47:17;101033.16;;;11.35;100.00
71966;BME280;59836;52.132;5.442;2024-02-16T08:49:43;101033.44;;;11.39;100.00
71966;BME280;59836;52.132;5.442;2024-02-16T08:52:10;101024.47;;;11.43;100.00
71966;BME280;59836;52.132;5.442;2024-02-16T08:54:36;101034.81;;;11.46;100.00
71966;BME280;59836;52.132;5.442;2024-02-16T08:57:03;101037.25;;;11.48;100.00
71966;BME280;59836;52.132;5.442;2024-02-16T08:59:30;101033.72;;;11.52;100.00
71966;BME280;59836;52.132;5.442;2024-02-16T09:01:57;101044.03;;;11.56;100.00
71966;BME280;59836;52.132;5.442;2024-02-16T09:04:25;101047.59;;;11.61;100.00
71966;BME280;59836;52.132;5.442;2024-02-16T09:06:51;101058.72;;;11.65;100.00
71966;BME280;59836;52.132;5.442;2024-02-16T09:09:18;101054.91;;;11.66;100.00
71966;BME280;59836;52.132;5.442;2024-02-16T09:11:45;101053.53;;;11.69;100.00
71966;BME280;59836;52.132;5.442;2024-02-16T09:14:12;101059.25;;;11.72;100.00
71966;BME280;59836;52.132;5.442;2024-02-16T09:16:38;101065.50;;;11.73;100.00
71966;BME280;59836;52.132;5.442;2024-02-16T09:19:05;101080.16;;;11.72;100.00
71966;BME280;59836;52.132;5.442;2024-02-16T09:21:32;101085.59;;;11.72;100.00
71966;BME280;59836;52.132;5.442;2024-02-16T09:23:58;101086.97;;;11.69;100.00
71966;BME280;59836;52.132;5.442;2024-02-16T09:26:27;101100.81;;;11.67;100.00
71966;BME280;59836;52.132;5.442;2024-02-16T09:28:57;101105.19;;;11.63;100.00
71966;BME280;59836;52.132;5.442;2024-02-16T09:31:24;101109.25;;;11.61;100.00
71966;BME280;59836;52.132;5.442;2024-02-16T09:33:51;101107.91;;;11.58;100.00
71966;BME280;59836;52.132;5.442;2024-02-16T09:36:18;101109.53;;;11.54;100.00
71966;BME280;59836;52.132;5.442;2024-02-16T09:38:45;101122.56;;;11.52;100.00
71966;BME280;59836;52.132;5.442;2024-02-16T09:41:13;101117.94;;;11.52;100.00
71966;BME280;59836;52.132;5.442;2024-02-16T09:43:39;101128.25;;;11.50;100.00
71966;BME280;59836;52.132;5.442;2024-02-16T09:46:08;101134.50;;;11.51;100.00
71966;BME280;59836;52.132;5.442;2024-02-16T09:48:35;101140.75;;;11.51;100.00
71966;BME280;59836;52.132;5.442;2024-02-16T09:51:02;101138.03;;;11.51;100.00
71966;BME280;59836;52.132;5.442;2024-02-16T09:53:31;101149.72;;;11.52;100.00
71966;BME280;59836;52.132;5.442;2024-02-16T09:55:58;101155.69;;;11.54;100.00
71966;BME280;59836;52.132;5.442;2024-02-16T09:58:24;101156.50;;;11.55;100.00
71966;BME280;59836;52.132;5.442;2024-02-16T10:00:52;101165.19;;;11.57;100.00
71966;BME280;59836;52.132;5.442;2024-02-16T10:03:30;101164.13;;;11.58;100.00
71966;BME280;59836;52.132;5.442;2024-02-16T10:06:12;101167.13;;;11.56;100.00
71966;BME280;59836;52.132;5.442;2024-02-16T10:08:53;101166.28;;;11.56;100.00
71966;BME280;59836;52.132;5.442;2024-02-16T10:11:22;101174.44;;;11.56;100.00
71966;BME280;59836;52.132;5.442;2024-02-16T10:14:00;101174.72;;;11.54;100.00
71966;BME280;59836;52.132;5.442;2024-02-16T10:16:28;101180.41;;;11.52;100.00
71966;BME280;59836;52.132;5.442;2024-02-16T10:19:17;101190.47;;;11.52;100.00
71966;BME280;59836;52.132;5.442;2024-02-16T10:21:44;101190.72;;;11.50;100.00
71966;BME280;59836;52.132;5.442;2024-02-16T10:24:12;101187.19;;;11.50;100.00
71966;BME280;59836;52.132;5.442;2024-02-16T10:26:40;101195.59;;;11.48;100.00
71966;BME280;59836;52.132;5.442;2024-02-16T10:29:09;101210.81;;;11.49;100.00
71966;BME280;59836;52.132;5.442;2024-02-16T10:31:36;101204.03;;;11.47;100.00
71966;BME280;59836;52.132;5.442;2024-02-16T10:34:04;101216.53;;;11.48;100.00
71966;BME280;59836;52.132;5.442;2024-02-16T10:36:38;101208.91;;;11.45;100.00
71966;BME280;59836;52.132;5.442;2024-02-16T10:39:06;101223.28;;;11.45;100.00
71966;BME280;59836;52.132;5.442;2024-02-16T10:41:41;101229.81;;;11.44;100.00
71966;BME280;59836;52.132;5.442;2024-02-16T10:44:07;101232.53;;;11.44;100.00
71966;BME280;59836;52.132;5.442;2024-02-16T10:46:34;101241.75;;;11.43;100.00
71966;BME280;59836;52.132;5.442;2024-02-16T10:49:02;101246.38;;;11.43;100.00
71966;BME280;59836;52.132;5.442;2024-02-16T10:51:39;101260.75;;;11.43;100.00
71966;BME280;59836;52.132;5.442;2024-02-16T10:54:07;101261.03;;;11.42;100.00
71966;BME280;59836;52.132;5.442;2024-02-16T10:56:35;101259.13;;;11.42;100.00
71966;BME280;59836;52.132;5.442;2024-02-16T10:59:03;101272.72;;;11.42;100.00
71966;BME280;59836;52.132;5.442;2024-02-16T11:01:41;101274.06;;;11.40;100.00
71966;BME280;59836;52.132;5.442;2024-02-16T11:04:14;101277.03;;;11.38;100.00
71966;BME280;59836;52.132;5.442;2024-02-16T11:06:52;101280.81;;;11.37;100.00
71966;BME280;59836;52.132;5.442;2024-02-16T11:09:26;101280.81;;;11.37;100.00
71966;BME280;59836;52.132;5.442;2024-02-16T11:11:55;101278.13;;;11.37;100.00
71966;BME280;59836;52.132;5.442;2024-02-16T11:14:22;101284.09;;;11.39;100.00
71966;BME280;59836;52.132;5.442;2024-02-16T11:16:53;101284.38;;;11.37;100.00
71966;BME280;59836;52.132;5.442;2024-02-16T11:19:22;101286.25;;;11.37;100.00
71966;BME280;59836;52.132;5.442;2024-02-16T11:21:58;101292.25;;;11.39;100.00
71966;BME280;59836;52.132;5.442;2024-02-16T11:24:32;101287.91;;;11.38;100.00
71966;BME280;59836;52.132;5.442;2024-02-16T11:27:04;101291.16;;;11.40;100.00
71966;BME280;59836;52.132;5.442;2024-02-16T11:29:34;101296.59;;;11.40;100.00
71966;BME280;59836;52.132;5.442;2024-02-16T11:32:05;101302.03;;;11.40;100.00
71966;BME280;59836;52.132;5.442;2024-02-16T11:34:33;101312.09;;;11.40;100.00
71966;BME280;59836;52.132;5.442;2024-02-16T11:37:02;101313.97;;;11.39;100.00
71966;BME280;59836;52.132;5.442;2024-02-16T11:39:29;101312.88;;;11.40;100.00
71966;BME280;59836;52.132;5.442;2024-02-16T11:42:01;101314.81;;;11.40;100.00
71966;BME280;59836;52.132;5.442;2024-02-16T11:44:31;101318.31;;;11.40;100.00
71966;BME280;59836;52.132;5.442;2024-02-16T11:46:59;101314.53;;;11.41;100.00
71966;BME280;59836;52.132;5.442;2024-02-16T11:49:28;101313.97;;;11.39;100.00
71966;BME280;59836;52.132;5.442;2024-02-16T11:51:56;101323.75;;;11.40;100.00
71966;BME280;59836;52.132;5.442;2024-02-16T11:54:23;101319.16;;;11.41;100.00
71966;BME280;59836;52.132;5.442;2024-02-16T11:56:50;101322.66;;;11.41;100.00
71966;BME280;59836;52.132;5.442;2024-02-16T11:59:19;101332.72;;;11.41;100.00
71966;BME280;59836;52.132;5.442;2024-02-16T12:01:56;101350.91;;;11.40;100.00
71966;BME280;59836;52.132;5.442;2024-02-16T12:04:24;101350.91;;;11.40;100.00
71966;BME280;59836;52.132;5.442;2024-02-16T12:06:52;101356.34;;;11.40;100.00
71966;BME280;59836;52.132;5.442;2024-02-16T12:09:19;101371.00;;;11.39;100.00
71966;BME280;59836;52.132;5.442;2024-02-16T12:11:50;101380.22;;;11.38;100.00
71966;BME280;59836;52.132;5.442;2024-02-16T12:14:17;101386.50;;;11.39;100.00
71966;BME280;59836;52.132;5.442;2024-02-16T12:16:50;101378.34;;;11.39;100.00
71966;BME280;59836;52.132;5.442;2024-02-16T12:19:21;101369.38;;;11.38;100.00
71966;BME280;59836;52.132;5.442;2024-02-16T12:21:55;101381.88;;;11.39;100.00
71966;BME280;59836;52.132;5.442;2024-02-16T12:24:24;101385.41;;;11.40;100.00
71966;BME280;59836;52.132;5.442;2024-02-16T12:26:51;101385.97;;;11.42;100.00
71966;BME280;59836;52.132;5.442;2024-02-16T12:29:17;101404.97;;;11.42;100.00
71966;BME280;59836;52.132;5.442;2024-02-16T12:31:45;101399.56;;;11.42;100.00
71966;BME280;59836;52.132;5.442;2024-02-16T12:34:12;101406.06;;;11.41;100.00
71966;BME280;59836;52.132;5.442;2024-02-16T12:36:40;101410.41;;;11.42;100.00
71966;BME280;59836;52.132;5.442;2024-02-16T12:39:09;101416.09;;;11.40;100.00
71966;BME280;59836;52.132;5.442;2024-02-16T12:41:38;101420.72;;;11.40;100.00
71966;BME280;59836;52.132;5.442;2024-02-16T12:44:05;101430.75;;;11.39;100.00